Alamosa, Colorado
Current Conditions -  °F | °C
As of 4:52 PM on Saturday 22 Nov 2014 (Local Time) from KALS Reporting Station
Clear Clear  
Wind Chill: 33°   Ceiling: Unl
Heat Index: 39°   Visibility: 10mi
Dew Point: 12°   Wind: 9mph
Humidity: 33%   Direction: 190°S
Pressure: 29.84"   Gusts: NA
Location:  37.47°N, 105.87°W
Report Text: KALS 222352Z AUTO 19008KT 10SM CLR 04/M11 A2984 RMK AO2 SLP120 T00391111 10100 20028 56013
Loading
Personal Weather Stations






























Interactive Weather Map New forecast layout! Learn more

10-Day Weather Forecast

Advertisements
Track Severe Weather on mobile